Time;durP1;ratioP1;P1;durP2;ratioP2;P2;SDS_P1;SDS_P2;PMS_P1;PMS_P2;Temp;Humidity;BMP_temperature;BMP_pressure;BME280_temperature;BME280_humidity;BME280_pressure;Samples;Min_cycle;Max_cycle;Signal;HPM_P1;HPM_P2
2023/03/13 00:02:51;;;;;;;19.00;10.63;;;;;;;-0.18;67.80;98039.94;10228848;28;20023;-53
2023/03/13 00:07:50;;;;;;;14.60;9.57;;;;;;;-0.50;67.81;97999.34;10203146;28;20374;-52
2023/03/13 00:12:48;;;;;;;16.33;10.25;;;;;;;-0.31;67.69;98037.63;10202503;28;20130;-53
2023/03/13 00:17:47;;;;;;;15.75;10.85;;;;;;;-0.29;67.58;98050.44;10203892;28;20101;-53
2023/03/13 00:22:46;;;;;;;19.75;11.95;;;;;;;-0.29;67.64;98045.34;10202929;28;20027;-52
2023/03/13 00:27:46;;;;;;;16.95;11.10;;;;;;;-0.31;67.47;98057.16;10203370;28;20640;-53
2023/03/13 00:32:46;;;;;;;18.88;11.30;;;;;;;-0.73;68.09;97995.72;10241820;28;20136;-53
2023/03/13 00:37:45;;;;;;;17.33;12.20;;;;;;;-0.32;67.93;98066.47;10242311;28;20146;-53
2023/03/13 00:42:44;;;;;;;17.08;11.80;;;;;;;-0.33;68.25;98074.91;10242576;28;20030;-53
2023/03/13 00:47:43;;;;;;;24.17;15.23;;;;;;;-0.41;70.03;98069.47;10243129;28;20041;-53
2023/03/13 00:52:41;;;;;;;19.92;12.50;;;;;;;-0.40;69.18;98070.34;10242332;28;20030;-54
2023/03/13 00:57:40;;;;;;;17.52;11.82;;;;;;;-0.40;69.43;98067.78;10242528;28;20500;-53
2023/03/13 01:02:42;;;;;;;21.02;12.20;;;;;;;-0.37;69.20;98073.91;10228832;28;20737;-53
2023/03/13 01:07:40;;;;;;;17.85;11.35;;;;;;;-0.38;68.94;98072.16;10241052;28;20556;-54
2023/03/13 01:12:40;;;;;;;19.92;13.45;;;;;;;-0.47;69.41;98053.88;10242172;28;20060;-54
2023/03/13 01:17:43;;;;;;;26.13;15.38;;;;;;;-0.42;69.30;98065.16;10241906;28;20104;-54
2023/03/13 01:22:42;;;;;;;28.10;17.05;;;;;;;-0.44;69.41;98066.78;10244334;28;20058;-54
2023/03/13 01:27:41;;;;;;;34.15;19.40;;;;;;;-0.45;69.39;98059.91;10249592;28;20034;-54
2023/03/13 01:32:39;;;;;;;34.13;21.10;;;;;;;-0.48;69.81;98062.34;10248828;28;20907;-54
2023/03/13 01:37:38;;;;;;;;;;;;;;;-0.49;70.63;98070.75;10250241;28;20109;-54
2023/03/13 01:42:58;;;;;;;28.10;17.67;;;;;;;-0.50;70.42;98068.16;10248855;28;20004;-54
2023/03/13 01:47:57;;;;;;;;;;;;;;;-0.59;69.73;98086.44;10250453;28;20073;-54
2023/03/13 01:52:56;;;;;;;30.00;18.97;;;;;;;-0.55;70.09;98088.34;10248408;28;19922;-54
2023/03/13 01:57:55;;;;;;;;;;;;;;;-0.58;70.88;98098.38;10248722;28;20065;-54
2023/03/13 02:02:58;;;;;;;29.30;17.75;;;;;;;-0.70;70.75;98090.13;10232381;28;20005;-54
2023/03/13 02:08:06;;;;;;;30.27;18.63;;;;;;;-0.68;71.04;98091.09;10207801;28;20059;-54
2023/03/13 02:13:05;;;;;;;31.25;19.42;;;;;;;-0.67;70.37;98085.22;10204536;28;20564;-54
2023/03/13 02:18:04;;;;;;;28.30;18.85;;;;;;;-0.70;71.23;98097.78;10206729;28;20499;-54
2023/03/13 02:23:23;;;;;;;31.58;19.35;;;;;;;-0.70;71.07;98100.31;10207659;28;20518;-54
2023/03/13 02:28:25;;;;;;;33.55;20.10;;;;;;;-0.72;71.24;98094.28;10245214;28;20061;-53
2023/03/13 02:33:30;;;;;;;47.45;26.90;;;;;;;-0.87;72.42;98102.06;10246055;28;20065;-53
2023/03/13 02:38:33;;;;;;;42.63;25.45;;;;;;;-0.88;72.87;98111.38;10246794;28;20066;-53
2023/03/13 02:43:35;;;;;;;49.65;27.75;;;;;;;-0.98;73.27;98116.81;10246365;28;20109;-54
2023/03/13 02:48:43;;;;;;;29.15;18.05;;;;;;;-1.17;74.29;98134.50;10246423;28;20065;-53
2023/03/13 02:53:43;;;;;;;27.70;17.83;;;;;;;-1.18;74.84;98132.78;10246200;28;20074;-53
2023/03/13 02:58:43;;;;;;;26.17;16.23;;;;;;;-1.19;73.89;98142.06;10246084;28;20138;-54
2023/03/13 03:03:42;;;;;;;23.75;14.57;;;;;;;-1.16;74.34;98138.81;10223899;28;20134;-53
2023/03/13 03:08:42;;;;;;;;;;;;;;;-1.17;74.39;98143.00;10206148;28;20081;-52
2023/03/13 03:13:41;;;;;;;;;;;;;;;-1.20;73.55;98134.38;10206124;28;20009;-53
2023/03/13 03:18:40;;;;;;;24.03;15.37;;;;;;;-1.24;74.20;98144.38;10205780;28;19938;-54
2023/03/13 03:23:39;;;;;;;;;;;;;;;-1.30;74.76;98151.72;10205217;28;20132;-53
2023/03/13 03:28:38;;;;;;;27.85;15.02;;;;;;;-1.31;74.69;98159.25;10205882;28;19914;-53
2023/03/13 03:33:38;;;;;;;26.17;17.45;;;;;;;-1.39;75.23;98171.59;10204794;28;20031;-53
2023/03/13 03:38:38;;;;;;;25.75;15.93;;;;;;;-1.58;75.25;98171.44;10204622;28;20072;-53
2023/03/13 03:43:37;;;;;;;28.25;15.18;;;;;;;-1.82;76.19;98187.13;10204462;28;20058;-53
2023/03/13 03:48:36;;;;;;;21.15;13.60;;;;;;;-1.90;76.68;98198.53;10203155;28;20109;-53
2023/03/13 03:53:35;;;;;;;;;;;;;;;-1.92;76.73;98212.84;10203178;28;20462;-53
2023/03/13 03:58:34;;;;;;;24.17;14.10;;;;;;;-1.80;76.13;98225.34;10204486;28;20890;-53
2023/03/13 04:03:33;;;;;;;22.25;13.90;;;;;;;-1.85;76.31;98232.72;10224877;28;20124;-54
2023/03/13 04:08:32;;;;;;;;;;;;;;;-1.87;76.00;98237.75;10243687;28;20049;-53
2023/03/13 04:13:31;;;;;;;21.60;12.65;;;;;;;-1.86;75.71;98241.16;10243758;28;20004;-53
2023/03/13 04:18:31;;;;;;;36.97;19.65;;;;;;;-1.89;75.67;98240.97;10243251;28;20053;-53
2023/03/13 04:24:18;;;;;;;31.65;19.25;;;;;;;-1.87;76.20;98249.56;10242912;28;20121;-54
2023/03/13 04:29:17;;;;;;;29.98;17.27;;;;;;;-1.90;76.10;98260.47;10217794;28;20780;-54
2023/03/13 04:34:16;;;;;;;33.65;18.50;;;;;;;-1.93;76.43;98269.59;10222287;28;20121;-53
2023/03/13 04:39:15;;;;;;;;;;;;;;;-1.95;76.43;98276.25;10203277;28;20497;-53
2023/03/13 04:44:14;;;;;;;47.05;27.67;;;;;;;-2.13;76.10;98241.38;10207367;28;19949;-53
2023/03/13 04:49:13;;;;;;;;;;;;;;;-1.91;76.38;98288.38;10243110;28;20044;-54
2023/03/13 04:54:12;;;;;;;52.07;31.00;;;;;;;-1.84;76.85;98298.09;10207189;28;20384;-53
2023/03/13 04:59:12;;;;;;;57.67;30.58;;;;;;;-1.97;76.70;98268.53;10247676;28;20057;-54
2023/03/13 05:04:11;;;;;;;62.42;34.55;;;;;;;-1.87;76.16;98280.09;10226181;28;20070;-54
2023/03/13 05:09:10;;;;;;;;;;;;;;;-1.61;76.35;98311.22;10210568;28;20134;-54
2023/03/13 05:14:10;;;;;;;70.28;40.72;;;;;;;-1.65;76.63;98312.72;10246858;28;19926;-54
2023/03/13 05:19:09;;;;;;;76.40;42.88;;;;;;;-1.61;77.29;98323.94;10248424;28;20066;-54
2023/03/13 05:24:08;;;;;;;80.25;44.13;;;;;;;-1.57;77.72;98330.94;10247947;28;20033;-53
2023/03/13 05:29:07;;;;;;;78.30;44.67;;;;;;;-1.56;77.00;98315.78;10247918;28;21742;-53
2023/03/13 05:34:06;;;;;;;82.07;46.30;;;;;;;-1.32;77.43;98330.66;10232504;28;20048;-54
2023/03/13 05:39:05;;;;;;;;;;;;;;;-1.10;76.90;98346.28;10213105;28;20026;-54
2023/03/13 05:44:04;;;;;;;78.00;43.38;;;;;;;-0.96;76.60;98338.50;10209098;28;19914;-54
2023/03/13 05:49:02;;;;;;;;;;;;;;;-0.71;75.92;98333.03;10210126;28;20069;-54
2023/03/13 05:54:01;;;;;;;79.13;43.92;;;;;;;-0.56;75.50;98350.81;10217132;28;19958;-53
2023/03/13 05:59:00;;;;;;;76.18;45.60;;;;;;;-0.49;74.97;98358.84;10214163;28;20047;-54
2023/03/13 06:03:59;;;;;;;62.28;34.92;;;;;;;-0.54;74.56;98354.31;10212801;28;20029;-54
2023/03/13 06:08:58;;;;;;;54.70;32.67;;;;;;;-0.45;74.42;98357.34;10226357;28;20054;-54
2023/03/13 06:13:57;;;;;;;44.90;25.90;;;;;;;-0.45;74.16;98354.78;10222661;28;20046;-54
2023/03/13 06:18:57;;;;;;;40.92;26.20;;;;;;;-0.82;74.36;98263.69;10216910;28;20038;-54
2023/03/13 06:23:56;;;;;;;50.10;29.85;;;;;;;-0.15;74.20;98355.47;10206147;28;20058;-54
2023/03/13 06:28:55;;;;;;;58.97;33.45;;;;;;;-0.03;73.77;98375.63;10210825;28;20512;-54
2023/03/13 06:33:55;;;;;;;56.92;33.45;;;;;;;0.08;74.13;98369.41;10214424;28;20517;-54
2023/03/13 06:38:54;;;;;;;61.25;37.70;;;;;;;0.25;73.68;98339.59;10218053;28;20806;-54
2023/03/13 06:43:53;;;;;;;67.30;40.10;;;;;;;0.43;73.18;98314.09;10216490;28;20440;-54
2023/03/13 06:48:52;;;;;;;66.35;41.90;;;;;;;-0.41;72.48;98168.91;10216422;28;20038;-54
2023/03/13 06:53:51;;;;;;;;;;;;;;;0.68;71.34;98319.53;10217467;28;20105;-54
2023/03/13 06:58:50;;;;;;;44.28;25.80;;;;;;;0.55;69.60;98283.16;10207448;28;19961;-54
2023/03/13 07:03:49;;;;;;;41.28;25.88;;;;;;;0.27;69.42;98223.13;10205330;28;20042;-54
2023/03/13 07:08:48;;;;;;;29.52;16.80;;;;;;;0.89;67.65;98317.09;10206410;28;20100;-54
2023/03/13 07:13:47;;;;;;;30.33;18.67;;;;;;;0.96;67.85;98320.81;10201766;28;20475;-55
2023/03/13 07:18:46;;;;;;;27.27;18.50;;;;;;;1.17;67.36;98304.69;10211564;28;20480;-55
2023/03/13 07:23:45;;;;;;;26.73;17.92;;;;;;;1.45;67.13;98287.19;10203511;28;20030;-53
2023/03/13 07:28:44;;;;;;;26.13;16.55;;;;;;;1.80;65.51;98285.28;10205448;28;20069;-56
2023/03/13 07:33:44;;;;;;;31.20;19.02;;;;;;;1.91;63.70;98291.72;10200883;28;20085;-55
2023/03/13 07:38:47;;;;;;;27.23;18.58;;;;;;;2.12;63.73;98294.28;10208154;28;20110;-55
2023/03/13 07:43:46;;;;;;;33.28;20.20;;;;;;;2.46;62.28;98279.41;10202477;28;20054;-55
2023/03/13 07:48:46;;;;;;;29.98;19.25;;;;;;;2.63;61.73;98274.91;10202814;28;20027;-55
2023/03/13 07:53:49;;;;;;;27.30;19.50;;;;;;;2.62;60.52;98201.44;10201754;28;20066;-55
2023/03/13 07:58:48;;;;;;;30.17;19.27;;;;;;;3.21;59.56;98280.56;10215879;28;20078;-55
2023/03/13 08:03:49;;;;;;;22.90;16.42;;;;;;;3.15;58.57;98274.34;10209434;28;20054;-55
2023/03/13 08:08:49;;;;;;;17.90;13.00;;;;;;;3.26;58.09;98255.09;10205388;28;20449;-55
2023/03/13 08:13:48;;;;;;;18.00;11.93;;;;;;;3.38;56.22;98254.66;10203754;28;20512;-55
2023/03/13 08:18:49;;;;;;;;;;;;;;;3.52;54.84;98257.66;10205482;28;20829;-55
2023/03/13 08:23:48;;;;;;;10.95;7.50;;;;;;;3.80;54.56;98255.25;10207309;28;20380;-55
2023/03/13 08:28:52;;;;;;;10.35;7.38;;;;;;;4.16;53.54;98247.00;10210736;28;20070;-55
2023/03/13 08:33:51;;;;;;;10.65;7.22;;;;;;;4.47;53.03;98242.81;10205453;28;20138;-55
2023/03/13 08:38:52;;;;;;;11.65;8.73;;;;;;;4.70;52.84;98251.25;10211731;28;20077;-55
2023/03/13 08:43:53;;;;;;;11.38;7.80;;;;;;;5.05;52.65;98228.28;10216188;28;20057;-55
2023/03/13 08:48:53;;;;;;;12.70;7.50;;;;;;;5.53;51.92;98226.19;10217950;28;20062;-55
2023/03/13 08:53:54;;;;;;;11.00;7.75;;;;;;;5.92;51.36;98217.72;10210660;28;20126;-55
2023/03/13 08:58:58;;;;;;;12.45;8.90;;;;;;;6.26;49.66;98207.34;10210895;28;20058;-55
2023/03/13 09:03:59;;;;;;;12.65;8.43;;;;;;;6.33;49.48;98209.28;10224148;28;20070;-53
2023/03/13 09:08:58;;;;;;;13.13;7.65;;;;;;;6.20;48.72;98195.22;10218929;28;20525;-55
2023/03/13 09:13:59;;;;;;;11.73;8.00;;;;;;;6.37;48.32;98196.50;10209693;28;20579;-55
2023/03/13 09:18:59;;;;;;;10.38;7.10;;;;;;;6.15;47.10;98134.97;10226803;28;20072;-55
2023/03/13 09:23:58;;;;;;;11.38;7.18;;;;;;;6.53;45.92;98176.19;10214451;28;20747;-55
2023/03/13 09:28:57;;;;;;;7.95;6.43;;;;;;;6.82;45.47;98200.91;10217915;28;20066;-55
2023/03/13 09:33:57;;;;;;;13.35;7.80;;;;;;;6.80;46.06;98202.56;10208757;28;20101;-55
2023/03/13 09:38:58;;;;;;;9.63;6.03;;;;;;;6.97;45.90;98194.31;10216813;28;20117;-55
2023/03/13 09:44:08;;;;;;;11.45;7.30;;;;;;;7.32;45.65;98191.56;10218183;28;20430;-55
2023/03/13 09:49:19;;;;;;;10.88;8.60;;;;;;;7.36;45.01;98185.59;10216057;28;20118;-55
2023/03/13 09:54:35;;;;;;;11.45;8.38;;;;;;;7.58;43.89;98145.56;10207095;28;20141;-55
2023/03/13 09:59:47;;;;;;;12.98;7.35;;;;;;;7.92;42.89;98172.84;10211289;28;20069;-54
2023/03/13 10:04:54;;;;;;;11.57;7.90;;;;;;;8.02;43.19;98154.03;10210189;28;20227;-54
2023/03/13 10:09:53;;;;;;;21.13;13.40;;;;;;;8.40;42.55;98155.47;10217271;28;20685;-54
2023/03/13 10:15:35;;;;;;;10.70;7.53;;;;;;;8.49;41.42;98143.50;10206740;28;20042;-55
2023/03/13 10:20:34;;;;;;;14.30;8.63;;;;;;;8.78;40.73;98121.44;10217191;28;20149;-54
2023/03/13 10:25:42;;;;;;;12.65;7.38;;;;;;;9.01;39.85;98107.06;10217606;28;20121;-54
2023/03/13 10:31:14;;;;;;;10.55;4.95;;;;;;;9.25;38.87;98111.59;10210057;28;20932;-54
2023/03/13 10:36:13;;;;;;;8.18;4.63;;;;;;;9.57;37.74;98096.41;10220923;28;20152;-54
2023/03/13 10:41:38;;;;;;;6.03;4.43;;;;;;;9.82;38.67;98078.47;10213699;28;20137;-55
2023/03/13 10:46:41;;;;;;;8.38;4.95;;;;;;;10.09;38.20;98066.53;10220502;28;20069;-56
2023/03/13 10:51:47;;;;;;;7.75;4.68;;;;;;;10.41;37.41;98053.72;10216601;28;20069;-56
2023/03/13 10:56:46;;;;;;;6.53;4.65;;;;;;;10.66;37.21;98053.81;10217295;28;20134;-56
2023/03/13 11:01:47;;;;;;;6.78;4.15;;;;;;;10.50;36.38;98001.88;10220002;28;20065;-55
2023/03/13 11:07:00;;;;;;;6.53;4.20;;;;;;;10.77;36.22;98026.16;10220546;28;20066;-56
2023/03/13 11:12:19;;;;;;;5.95;4.03;;;;;;;10.91;34.87;98019.31;10223369;28;20081;-56
2023/03/13 11:17:26;;;;;;;5.33;3.67;;;;;;;11.19;34.58;98021.94;10219120;28;20492;-55
2023/03/13 11:22:59;;;;;;;6.53;4.80;;;;;;;11.40;34.88;98019.34;10218754;28;20122;-55
2023/03/13 11:28:24;;;;;;;6.22;4.05;;;;;;;11.79;34.47;98007.19;10230711;28;20854;-55
2023/03/13 11:33:35;;;;;;;6.10;3.92;;;;;;;11.97;33.60;97987.22;10211562;28;20557;-55
2023/03/13 11:38:41;;;;;;;5.03;3.80;;;;;;;11.57;34.17;97941.41;10235988;28;20133;-54
2023/03/13 11:44:10;;;;;;;6.60;3.58;;;;;;;11.85;33.66;97983.78;10210648;28;20117;-54
2023/03/13 11:49:23;;;;;;;6.57;3.53;;;;;;;12.00;33.07;97974.22;10207791;28;20548;-54
2023/03/13 11:54:50;;;;;;;4.25;3.17;;;;;;;12.08;33.08;97956.84;10217060;28;20249;-54
2023/03/13 12:00:40;;;;;;;3.78;2.72;;;;;;;11.97;31.50;97943.00;10209130;28;20070;-55
2023/03/13 12:05:45;;;;;;;5.27;3.30;;;;;;;12.14;31.84;97936.00;10211656;28;20876;-55
2023/03/13 12:11:05;;;;;;;4.15;2.80;;;;;;;12.26;30.79;97889.09;10224511;28;20189;-55
2023/03/13 12:16:11;;;;;;;4.88;3.13;;;;;;;12.72;30.62;97921.84;10216118;28;20561;-55
2023/03/13 12:21:28;;;;;;;6.00;3.67;;;;;;;11.65;30.74;97775.88;10213113;28;20065;-56
2023/03/13 12:26:43;;;;;;;6.20;3.20;;;;;;;12.38;29.72;97915.97;10208525;28;20066;-56
2023/03/13 12:32:00;;;;;;;6.32;3.70;;;;;;;12.50;29.58;97902.88;10221216;28;20498;-56
2023/03/13 12:37:09;;;;;;;5.97;3.25;;;;;;;12.45;28.93;97870.81;10206361;28;20540;-56
2023/03/13 12:42:08;;;;;;;3.90;3.00;;;;;;;12.85;29.41;97909.59;10216426;28;20453;-56
2023/03/13 12:47:15;;;;;;;4.22;3.00;;;;;;;12.98;29.70;97916.44;10206990;28;20652;-54
2023/03/13 12:52:38;;;;;;;4.75;3.05;;;;;;;12.96;29.28;97907.75;10219076;28;20092;-55
2023/03/13 12:57:42;;;;;;;7.05;4.00;;;;;;;12.91;28.36;97910.41;10206748;28;20058;-55
2023/03/13 13:02:42;;;;;;;3.53;3.00;;;;;;;12.83;28.09;97908.72;10209813;28;20061;-56
2023/03/13 13:07:53;;;;;;;2.92;2.53;;;;;;;13.04;27.98;97905.94;10208282;28;20062;-56
2023/03/13 13:13:29;;;;;;;3.65;2.67;;;;;;;13.17;27.76;97911.06;10215640;28;20773;-56
2023/03/13 13:18:32;;;;;;;3.58;2.65;;;;;;;13.22;27.85;97904.94;10211071;28;20726;-54
2023/03/13 13:23:45;;;;;;;4.15;2.70;;;;;;;13.36;27.54;97905.66;10233833;28;20142;-55
2023/03/13 13:28:45;;;;;;;3.10;2.50;;;;;;;13.53;26.79;97900.28;10215882;28;20077;-55
2023/03/13 13:33:44;;;;;;;4.80;2.67;;;;;;;13.82;27.12;97900.84;10224617;28;20145;-55
2023/03/13 13:38:43;;;;;;;;;;;;;;;13.90;27.27;97889.47;10215227;28;20145;-55
2023/03/13 13:43:47;;;;;;;4.30;2.97;;;;;;;14.07;26.43;97886.63;10207691;28;19950;-56
2023/03/13 13:48:46;;;;;;;3.85;2.70;;;;;;;13.53;25.66;97884.63;10216201;28;20117;-56
2023/03/13 13:53:51;;;;;;;;;;;;;;;13.81;26.08;97884.34;10222100;28;20034;-56
2023/03/13 13:59:02;;;;;;;8.98;5.28;;;;;;;13.98;25.18;97882.41;10214861;28;19945;-56
2023/03/13 14:04:14;;;;;;;6.93;4.10;;;;;;;13.77;25.08;97857.47;10225861;28;20122;-55
2023/03/13 14:09:48;;;;;;;8.27;4.57;;;;;;;13.92;24.69;97879.03;10214185;28;20054;-55
2023/03/13 14:14:47;;;;;;;6.95;3.90;;;;;;;14.06;24.61;97869.25;10215365;28;20125;-55
2023/03/13 14:19:47;;;;;;;;;;;;;;;14.02;24.46;97872.78;10214828;28;20153;-55
2023/03/13 14:24:57;;;;;;;3.63;2.83;;;;;;;14.14;25.32;97861.31;10220397;28;19949;-55
2023/03/13 14:30:05;;;;;;;2.80;2.10;;;;;;;14.01;25.41;97815.41;10212718;28;20126;-55
2023/03/13 14:35:05;;;;;;;2.67;2.35;;;;;;;14.39;24.98;97857.47;10220630;28;20142;-55
2023/03/13 14:40:09;;;;;;;8.60;3.90;;;;;;;14.27;25.00;97831.56;10212983;28;20058;-55
2023/03/13 14:45:22;;;;;;;4.97;2.97;;;;;;;14.15;24.92;97847.41;10218768;28;20042;-55
2023/03/13 14:50:24;;;;;;;6.90;4.45;;;;;;;13.94;24.94;97851.16;10214568;28;20580;-56
2023/03/13 14:55:23;;;;;;;15.93;7.15;;;;;;;13.76;24.95;97860.06;10219464;28;20291;-56
2023/03/13 15:00:33;;;;;;;;;;;;;;;13.76;24.89;97853.09;10212407;28;20851;-56
2023/03/13 15:05:32;;;;;;;9.63;3.95;;;;;;;13.81;24.82;97858.25;10219319;28;19957;-56
2023/03/13 15:10:36;;;;;;;4.82;3.15;;;;;;;13.77;26.00;97862.69;10211334;28;20070;-56
2023/03/13 15:15:34;;;;;;;3.45;2.55;;;;;;;13.60;24.90;97856.78;10216499;28;20775;-55
2023/03/13 15:20:33;;;;;;;;;;;;;;;13.54;24.80;97860.34;10210363;28;20743;-56
2023/03/13 15:25:32;;;;;;;7.38;4.15;;;;;;;13.45;24.38;97855.19;10217405;28;20355;-56
2023/03/13 15:30:31;;;;;;;;;;;;;;;13.25;23.75;97857.13;10211403;28;20534;-56
2023/03/13 15:35:32;;;;;;;4.97;3.17;;;;;;;13.25;23.84;97855.38;10205138;28;20308;-56
2023/03/13 15:40:31;;;;;;;7.32;4.63;;;;;;;13.04;24.33;97851.22;10210286;28;20481;-55
2023/03/13 15:45:30;;;;;;;;;;;;;;;13.18;24.66;97871.09;10217891;28;20062;-55
2023/03/13 15:50:30;;;;;;;5.93;3.00;;;;;;;12.96;24.91;97878.25;10210679;28;20463;-55
2023/03/13 15:55:29;;;;;;;;;;;;;;;12.76;26.25;97881.88;10205753;28;20141;-55
2023/03/13 16:00:28;;;;;;;9.57;5.85;;;;;;;12.66;28.73;97894.09;10208819;28;19958;-55
2023/03/13 16:05:28;;;;;;;6.75;4.50;;;;;;;12.57;29.88;97894.16;10216511;28;20037;-55
2023/03/13 16:10:28;;;;;;;7.22;5.15;;;;;;;12.45;29.91;97899.44;10202949;28;20735;-54
2023/03/13 16:15:27;;;;;;;17.27;9.63;;;;;;;12.18;30.12;97890.91;10219938;28;20861;-55
2023/03/13 16:20:27;;;;;;;19.90;13.65;;;;;;;11.97;30.70;97894.47;10209082;28;20373;-55
2023/03/13 16:25:26;;;;;;;14.15;8.98;;;;;;;11.74;30.47;97893.69;10217283;28;20062;-55
2023/03/13 16:30:28;;;;;;;13.20;7.28;;;;;;;11.53;31.24;97894.63;10207289;28;20365;-55
2023/03/13 16:35:28;;;;;;;10.10;6.40;;;;;;;11.29;31.87;97893.81;10214359;28;20568;-55
2023/03/13 16:40:29;;;;;;;;;;;;;;;10.96;33.19;97911.16;10207328;28;20061;-55
2023/03/13 16:45:28;;;;;;;18.35;10.13;;;;;;;10.77;32.74;97928.38;10216027;28;20032;-55
2023/03/13 16:50:37;;;;;;;20.00;10.40;;;;;;;10.39;33.96;97908.44;10209488;28;20145;-55
2023/03/13 16:55:36;;;;;;;75.00;41.37;;;;;;;10.31;34.62;97938.69;10214791;28;20070;-55
2023/03/13 17:00:35;;;;;;;28.35;16.38;;;;;;;9.95;37.35;97950.66;10208687;28;21042;-55
2023/03/13 17:05:34;;;;;;;24.95;14.25;;;;;;;9.81;37.60;97954.03;10222288;28;20553;-55
2023/03/13 17:10:33;;;;;;;19.42;12.73;;;;;;;9.71;37.86;97961.75;10214939;28;20061;-55
2023/03/13 17:15:32;;;;;;;18.80;11.65;;;;;;;9.58;37.67;97970.31;10221644;28;20130;-55
2023/03/13 17:20:31;;;;;;;17.67;10.00;;;;;;;8.91;37.84;97890.41;10208983;28;20038;-55
2023/03/13 17:25:30;;;;;;;22.90;14.88;;;;;;;8.18;38.24;97807.91;10196088;28;20034;-55
2023/03/13 17:30:30;;;;;;;22.98;13.75;;;;;;;9.11;38.36;97984.63;10229293;28;20564;-56
2023/03/13 17:35:29;;;;;;;20.45;12.02;;;;;;;8.11;38.69;97837.09;10229745;28;20077;-55
2023/03/13 17:40:31;;;;;;;13.60;9.48;;;;;;;8.60;38.40;97941.00;10213262;28;20045;-55
2023/03/13 17:45:35;;;;;;;16.20;9.68;;;;;;;7.91;39.50;97847.25;10217855;28;20110;-55
2023/03/13 17:50:34;;;;;;;15.30;9.98;;;;;;;8.61;39.78;97991.91;10209575;28;20146;-55
2023/03/13 17:55:34;;;;;;;19.55;12.73;;;;;;;8.39;40.01;97985.63;10217121;28;20133;-55
2023/03/13 18:00:33;;;;;;;14.75;9.10;;;;;;;8.30;40.12;97992.44;10207212;28;20105;-56
2023/03/13 18:05:32;;;;;;;;;;;;;;;8.11;41.95;98010.25;10222174;28;20518;-55
2023/03/13 18:10:31;;;;;;;31.83;20.88;;;;;;;7.85;41.47;97964.31;10206475;28;20434;-56
2023/03/13 18:15:30;;;;;;;32.80;20.88;;;;;;;7.99;41.64;97988.59;10203927;28;20111;-55
2023/03/13 18:20:31;;;;;;;27.50;19.30;;;;;;;7.81;41.92;97988.38;10208724;28;20030;-55
2023/03/13 18:25:30;;;;;;;20.60;13.60;;;;;;;7.63;42.24;97979.50;10215481;28;20069;-54
2023/03/13 18:30:29;;;;;;;21.60;12.60;;;;;;;7.42;43.45;97971.44;10207161;28;20030;-54
2023/03/13 18:35:27;;;;;;;15.48;10.85;;;;;;;7.22;44.00;97971.13;10215280;28;20077;-55
2023/03/13 18:40:27;;;;;;;14.90;10.07;;;;;;;7.10;43.86;97979.53;10207343;28;20029;-54
2023/03/13 18:45:26;;;;;;;17.73;11.23;;;;;;;6.98;44.43;97984.47;10213706;28;20532;-54
2023/03/13 18:50:28;;;;;;;26.48;16.20;;;;;;;6.39;46.48;97965.38;10207422;28;20122;-54
2023/03/13 18:55:29;;;;;;;52.47;31.48;;;;;;;6.26;46.75;97954.78;10226875;28;20503;-55
2023/03/13 19:00:29;;;;;;;46.03;29.15;;;;;;;6.35;47.89;98004.84;10206621;28;20587;-56
2023/03/13 19:05:28;;;;;;;41.10;27.45;;;;;;;6.15;48.21;98009.56;10211895;28;20185;-54
2023/03/13 19:10:30;;;;;;;45.67;30.35;;;;;;;6.16;48.37;98008.75;10206159;28;20039;-54
2023/03/13 19:15:30;;;;;;;53.42;36.40;;;;;;;5.92;49.07;98011.66;10213240;28;20125;-55
2023/03/13 19:20:29;;;;;;;60.53;43.40;;;;;;;5.73;50.22;98005.25;10205521;28;20069;-55
2023/03/13 19:25:28;;;;;;;54.65;33.92;;;;;;;5.71;50.70;98006.91;10214728;28;20070;-55
2023/03/13 19:30:27;;;;;;;47.90;31.10;;;;;;;5.63;50.96;98007.59;10205734;28;20125;-56
2023/03/13 19:35:26;;;;;;;60.70;35.63;;;;;;;5.58;51.21;97999.78;10227596;28;20030;-55
2023/03/13 19:40:29;;;;;;;57.00;37.60;;;;;;;5.49;51.54;97995.28;10204537;28;20118;-55
2023/03/13 19:45:27;;;;;;;52.10;34.08;;;;;;;5.46;51.65;97995.22;10200963;28;20158;-56
2023/03/13 19:50:26;;;;;;;46.00;28.83;;;;;;;5.28;52.33;97989.63;10205248;28;20029;-55
2023/03/13 19:55:25;;;;;;;50.88;31.60;;;;;;;4.93;52.57;97940.75;10212335;28;20038;-55
2023/03/13 20:00:26;;;;;;;48.67;31.83;;;;;;;5.16;52.03;97979.94;10204765;28;20106;-55
2023/03/13 20:05:28;;;;;;;50.08;30.92;;;;;;;4.57;52.47;97887.63;10220015;28;20077;-54
2023/03/13 20:10:27;;;;;;;29.58;18.38;;;;;;;5.02;52.70;97966.72;10204006;28;20073;-54
2023/03/13 20:15:26;;;;;;;30.65;18.95;;;;;;;4.91;52.94;97968.13;10211817;28;20062;-54
2023/03/13 20:20:25;;;;;;;28.50;19.60;;;;;;;4.92;53.54;97977.56;10198879;28;20046;-54
2023/03/13 20:25:24;;;;;;;32.67;20.33;;;;;;;4.85;53.41;97965.41;10211238;28;20069;-54
2023/03/13 20:30:23;;;;;;;34.75;22.55;;;;;;;4.71;53.38;97960.81;10200519;28;20027;-54
2023/03/13 20:35:21;;;;;;;61.58;34.08;;;;;;;4.72;53.24;97967.66;10211291;28;20661;-55
2023/03/13 20:40:21;;;;;;;85.72;48.38;;;;;;;4.66;54.10;97958.94;10203121;28;20113;-55
2023/03/13 20:45:20;;;;;;;65.22;36.65;;;;;;;4.57;54.04;97957.00;10203384;28;20118;-54
2023/03/13 20:50:20;;;;;;;42.00;26.38;;;;;;;4.53;53.33;97947.47;10203273;28;20432;-55
2023/03/13 20:55:19;;;;;;;66.35;36.65;;;;;;;4.44;53.79;97945.53;10198301;28;20504;-55
2023/03/13 21:00:18;;;;;;;32.67;22.30;;;;;;;4.33;54.08;97931.53;10217240;28;20051;-55
2023/03/13 21:05:17;;;;;;;37.97;23.85;;;;;;;4.24;55.00;97929.59;10210081;28;20539;-55
2023/03/13 21:10:17;;;;;;;40.55;25.85;;;;;;;4.14;55.94;97908.75;10203933;28;20477;-55
2023/03/13 21:15:16;;;;;;;51.00;30.83;;;;;;;4.08;55.49;97904.34;10210555;28;20564;-54
2023/03/13 21:20:15;;;;;;;35.35;23.05;;;;;;;4.08;54.86;97909.47;10202951;28;20481;-55
2023/03/13 21:25:14;;;;;;;36.05;22.50;;;;;;;3.88;54.61;97890.09;10210599;28;20420;-55
2023/03/13 21:30:19;;;;;;;22.08;15.20;;;;;;;3.97;54.38;97896.34;10203492;28;20118;-55
2023/03/13 21:35:18;;;;;;;27.90;15.70;;;;;;;3.95;53.83;97889.41;10209263;28;20069;-55
2023/03/13 21:40:17;;;;;;;42.03;22.90;;;;;;;3.14;54.06;97744.34;10205821;28;20062;-55
2023/03/13 21:45:16;;;;;;;99.97;42.83;;;;;;;3.73;54.24;97832.38;10207024;28;20054;-55
2023/03/13 21:50:15;;;;;;;25.55;16.50;;;;;;;3.72;54.83;97879.38;10204801;28;20031;-54
2023/03/13 21:55:14;;;;;;;43.60;25.27;;;;;;;3.66;54.14;97876.66;10216363;28;20105;-54
2023/03/13 22:00:14;;;;;;;38.45;23.60;;;;;;;3.58;54.74;97880.69;10210325;28;20043;-55
2023/03/13 22:05:13;;;;;;;36.30;22.48;;;;;;;3.74;54.35;97888.00;10217942;28;20114;-54
2023/03/13 22:10:12;;;;;;;35.45;20.73;;;;;;;3.55;55.23;97878.91;10208925;28;20043;-54
2023/03/13 22:15:11;;;;;;;31.35;20.67;;;;;;;3.43;56.52;97876.84;10214552;28;20076;-56
2023/03/13 22:20:10;;;;;;;33.55;19.23;;;;;;;3.52;55.60;97883.06;10210919;28;20058;-55
2023/03/13 22:25:09;;;;;;;32.92;19.13;;;;;;;3.32;54.83;97874.81;10202083;28;20110;-56
2023/03/13 22:30:10;;;;;;;30.48;18.63;;;;;;;3.34;54.11;97871.47;10208514;28;20105;-55
2023/03/13 22:35:09;;;;;;;13.98;7.15;;;;;;;3.72;49.22;97866.53;10214799;28;20109;-55
2023/03/13 22:40:09;;;;;;;12.68;5.07;;;;;;;4.35;44.83;97857.94;10204318;28;20494;-55
2023/03/13 22:45:09;;;;;;;8.35;4.57;;;;;;;4.90;42.56;97845.56;10203171;28;20125;-55
2023/03/13 22:50:09;;;;;;;8.93;5.07;;;;;;;5.22;41.77;97814.53;10203281;28;20118;-55
2023/03/13 22:55:08;;;;;;;7.32;4.22;;;;;;;5.58;40.92;97809.28;10209928;28;20066;-55
2023/03/13 23:00:08;;;;;;;8.48;4.43;;;;;;;5.94;40.51;97829.69;10203631;28;20030;-55
2023/03/13 23:05:08;;;;;;;6.78;4.30;;;;;;;6.06;40.38;97829.06;10219547;28;20144;-55
2023/03/13 23:10:08;;;;;;;6.70;3.80;;;;;;;6.02;39.56;97810.94;10206093;28;20081;-55
2023/03/13 23:15:08;;;;;;;15.43;4.93;;;;;;;6.13;39.76;97825.75;10206949;28;20129;-55
2023/03/13 23:20:12;;;;;;;6.95;4.03;;;;;;;6.14;39.10;97824.91;10202185;28;20066;-55
2023/03/13 23:25:12;;;;;;;7.72;4.10;;;;;;;6.05;39.46;97816.16;10207083;28;20152;-55